sensor_id;sensor_type;location;lat;lon;timestamp;P1;durP1;ratioP1;P2;durP2;ratioP2
21352;SDS011;10834;52.268;6.770;2022-08-18T00:02:16;6.47;;;5.95;;
21352;SDS011;10834;52.268;6.770;2022-08-18T00:05:05;6.10;;;5.70;;
21352;SDS011;10834;52.268;6.770;2022-08-18T00:07:51;5.70;;;5.30;;
21352;SDS011;10834;52.268;6.770;2022-08-18T00:10:39;6.57;;;6.18;;
21352;SDS011;10834;52.268;6.770;2022-08-18T00:13:27;6.78;;;6.28;;
21352;SDS011;10834;52.268;6.770;2022-08-18T00:16:13;6.28;;;5.80;;
21352;SDS011;10834;52.268;6.770;2022-08-18T00:18:59;6.55;;;5.95;;
21352;SDS011;10834;52.268;6.770;2022-08-18T00:21:45;6.00;;;5.60;;
21352;SDS011;10834;52.268;6.770;2022-08-18T00:24:31;6.07;;;5.68;;
21352;SDS011;10834;52.268;6.770;2022-08-18T00:27:18;5.93;;;5.53;;
21352;SDS011;10834;52.268;6.770;2022-08-18T00:30:08;5.75;;;5.32;;
21352;SDS011;10834;52.268;6.770;2022-08-18T00:32:57;5.63;;;5.22;;
21352;SDS011;10834;52.268;6.770;2022-08-18T00:35:45;6.00;;;5.53;;
21352;SDS011;10834;52.268;6.770;2022-08-18T00:38:31;6.22;;;5.72;;
21352;SDS011;10834;52.268;6.770;2022-08-18T00:41:17;6.45;;;6.03;;
21352;SDS011;10834;52.268;6.770;2022-08-18T00:44:03;5.95;;;5.45;;
21352;SDS011;10834;52.268;6.770;2022-08-18T00:46:49;5.85;;;5.45;;
21352;SDS011;10834;52.268;6.770;2022-08-18T00:49:36;6.32;;;5.93;;
21352;SDS011;10834;52.268;6.770;2022-08-18T00:52:24;5.68;;;5.28;;
21352;SDS011;10834;52.268;6.770;2022-08-18T00:55:10;6.03;;;5.60;;
21352;SDS011;10834;52.268;6.770;2022-08-18T00:58:02;6.35;;;5.90;;
21352;SDS011;10834;52.268;6.770;2022-08-18T01:00:53;6.18;;;5.70;;
21352;SDS011;10834;52.268;6.770;2022-08-18T01:03:41;6.45;;;5.95;;
21352;SDS011;10834;52.268;6.770;2022-08-18T01:06:40;5.93;;;5.45;;
21352;SDS011;10834;52.268;6.770;2022-08-18T01:09:31;6.13;;;5.72;;
21352;SDS011;10834;52.268;6.770;2022-08-18T01:12:17;5.35;;;5.03;;
21352;SDS011;10834;52.268;6.770;2022-08-18T01:15:04;5.85;;;5.35;;
21352;SDS011;10834;52.268;6.770;2022-08-18T01:17:50;5.75;;;5.35;;
21352;SDS011;10834;52.268;6.770;2022-08-18T01:24:15;5.47;;;5.07;;
21352;SDS011;10834;52.268;6.770;2022-08-18T01:27:03;6.07;;;5.65;;
21352;SDS011;10834;52.268;6.770;2022-08-18T01:29:49;6.15;;;5.75;;
21352;SDS011;10834;52.268;6.770;2022-08-18T01:32:36;5.40;;;5.10;;
21352;SDS011;10834;52.268;6.770;2022-08-18T01:35:24;6.10;;;5.70;;
21352;SDS011;10834;52.268;6.770;2022-08-18T01:38:11;6.32;;;5.72;;
21352;SDS011;10834;52.268;6.770;2022-08-18T01:40:58;5.78;;;5.20;;
21352;SDS011;10834;52.268;6.770;2022-08-18T01:43:44;6.10;;;5.60;;
21352;SDS011;10834;52.268;6.770;2022-08-18T01:46:31;6.45;;;5.95;;
21352;SDS011;10834;52.268;6.770;2022-08-18T01:49:19;5.68;;;5.28;;
21352;SDS011;10834;52.268;6.770;2022-08-18T01:52:07;6.25;;;5.75;;
21352;SDS011;10834;52.268;6.770;2022-08-18T01:55:04;5.38;;;4.88;;
21352;SDS011;10834;52.268;6.770;2022-08-18T01:57:52;5.65;;;5.25;;
21352;SDS011;10834;52.268;6.770;2022-08-18T02:00:39;5.97;;;5.57;;
21352;SDS011;10834;52.268;6.770;2022-08-18T02:03:36;5.38;;;5.07;;
21352;SDS011;10834;52.268;6.770;2022-08-18T02:06:25;5.57;;;5.18;;
21352;SDS011;10834;52.268;6.770;2022-08-18T02:09:11;5.90;;;5.40;;
21352;SDS011;10834;52.268;6.770;2022-08-18T02:11:57;6.05;;;5.60;;
21352;SDS011;10834;52.268;6.770;2022-08-18T02:14:44;5.95;;;5.50;;
21352;SDS011;10834;52.268;6.770;2022-08-18T02:17:35;5.60;;;5.13;;
21352;SDS011;10834;52.268;6.770;2022-08-18T02:20:25;5.40;;;5.00;;
21352;SDS011;10834;52.268;6.770;2022-08-18T02:23:12;5.57;;;5.18;;
21352;SDS011;10834;52.268;6.770;2022-08-18T02:26:02;5.90;;;5.50;;
21352;SDS011;10834;52.268;6.770;2022-08-18T02:28:53;5.30;;;5.00;;
21352;SDS011;10834;52.268;6.770;2022-08-18T02:31:39;5.50;;;5.10;;
21352;SDS011;10834;52.268;6.770;2022-08-18T02:34:25;5.60;;;5.20;;
21352;SDS011;10834;52.268;6.770;2022-08-18T02:37:11;5.88;;;5.47;;
21352;SDS011;10834;52.268;6.770;2022-08-18T02:39:57;5.85;;;5.45;;
21352;SDS011;10834;52.268;6.770;2022-08-18T02:42:44;5.25;;;4.93;;
21352;SDS011;10834;52.268;6.770;2022-08-18T02:45:30;5.90;;;5.30;;
21352;SDS011;10834;52.268;6.770;2022-08-18T02:48:17;5.82;;;5.43;;
21352;SDS011;10834;52.268;6.770;2022-08-18T02:51:22;6.07;;;5.68;;
21352;SDS011;10834;52.268;6.770;2022-08-18T02:54:08;5.85;;;5.45;;
21352;SDS011;10834;52.268;6.770;2022-08-18T02:56:55;5.88;;;5.47;;
21352;SDS011;10834;52.268;6.770;2022-08-18T02:59:42;6.15;;;5.65;;
21352;SDS011;10834;52.268;6.770;2022-08-18T03:02:28;5.82;;;5.43;;
21352;SDS011;10834;52.268;6.770;2022-08-18T03:05:14;5.72;;;5.32;;
21352;SDS011;10834;52.268;6.770;2022-08-18T03:08:00;5.82;;;5.28;;
21352;SDS011;10834;52.268;6.770;2022-08-18T03:10:49;5.65;;;5.25;;
21352;SDS011;10834;52.268;6.770;2022-08-18T03:13:37;6.15;;;5.70;;
21352;SDS011;10834;52.268;6.770;2022-08-18T03:16:23;6.53;;;5.97;;
21352;SDS011;10834;52.268;6.770;2022-08-18T03:19:09;5.68;;;5.28;;
21352;SDS011;10834;52.268;6.770;2022-08-18T03:22:00;6.10;;;5.63;;
21352;SDS011;10834;52.268;6.770;2022-08-18T03:24:46;5.55;;;5.07;;
21352;SDS011;10834;52.268;6.770;2022-08-18T03:27:32;5.47;;;5.07;;
21352;SDS011;10834;52.268;6.770;2022-08-18T03:30:18;6.22;;;5.72;;
21352;SDS011;10834;52.268;6.770;2022-08-18T03:33:04;6.60;;;6.13;;
21352;SDS011;10834;52.268;6.770;2022-08-18T03:35:50;6.20;;;5.70;;
21352;SDS011;10834;52.268;6.770;2022-08-18T03:38:38;6.38;;;5.88;;
21352;SDS011;10834;52.268;6.770;2022-08-18T03:41:25;6.30;;;5.90;;
21352;SDS011;10834;52.268;6.770;2022-08-18T03:44:13;5.63;;;5.22;;
21352;SDS011;10834;52.268;6.770;2022-08-18T03:47:00;5.78;;;5.38;;
21352;SDS011;10834;52.268;6.770;2022-08-18T03:49:49;5.70;;;5.30;;
21352;SDS011;10834;52.268;6.770;2022-08-18T03:52:35;5.82;;;5.20;;
21352;SDS011;10834;52.268;6.770;2022-08-18T03:55:22;5.97;;;5.50;;
21352;SDS011;10834;52.268;6.770;2022-08-18T03:58:08;5.90;;;5.50;;
21352;SDS011;10834;52.268;6.770;2022-08-18T04:00:58;5.93;;;5.53;;
21352;SDS011;10834;52.268;6.770;2022-08-18T04:03:47;6.00;;;5.60;;
21352;SDS011;10834;52.268;6.770;2022-08-18T04:06:43;6.07;;;5.63;;
21352;SDS011;10834;52.268;6.770;2022-08-18T04:09:35;6.05;;;5.55;;
21352;SDS011;10834;52.268;6.770;2022-08-18T04:12:22;5.43;;;5.03;;
21352;SDS011;10834;52.268;6.770;2022-08-18T04:15:08;5.68;;;5.28;;
21352;SDS011;10834;52.268;6.770;2022-08-18T04:17:57;5.55;;;5.15;;
21352;SDS011;10834;52.268;6.770;2022-08-18T04:20:44;6.10;;;5.70;;
21352;SDS011;10834;52.268;6.770;2022-08-18T04:23:31;5.53;;;5.13;;
21352;SDS011;10834;52.268;6.770;2022-08-18T04:26:17;5.15;;;4.85;;
21352;SDS011;10834;52.268;6.770;2022-08-18T04:29:05;5.30;;;5.00;;
21352;SDS011;10834;52.268;6.770;2022-08-18T04:31:52;5.95;;;5.47;;
21352;SDS011;10834;52.268;6.770;2022-08-18T04:34:38;5.25;;;4.93;;
21352;SDS011;10834;52.268;6.770;2022-08-18T04:37:25;5.35;;;4.95;;
21352;SDS011;10834;52.268;6.770;2022-08-18T04:40:11;5.95;;;5.55;;
21352;SDS011;10834;52.268;6.770;2022-08-18T04:42:59;5.55;;;5.10;;
21352;SDS011;10834;52.268;6.770;2022-08-18T04:45:46;6.03;;;5.63;;
21352;SDS011;10834;52.268;6.770;2022-08-18T04:48:34;5.80;;;5.30;;
21352;SDS011;10834;52.268;6.770;2022-08-18T04:51:21;5.88;;;5.38;;
21352;SDS011;10834;52.268;6.770;2022-08-18T04:54:07;5.47;;;5.07;;
21352;SDS011;10834;52.268;6.770;2022-08-18T04:56:53;5.43;;;5.00;;
21352;SDS011;10834;52.268;6.770;2022-08-18T04:59:41;5.07;;;4.78;;
21352;SDS011;10834;52.268;6.770;2022-08-18T05:02:29;5.47;;;5.07;;
21352;SDS011;10834;52.268;6.770;2022-08-18T05:05:17;5.43;;;5.03;;
21352;SDS011;10834;52.268;6.770;2022-08-18T05:08:03;5.82;;;5.32;;
21352;SDS011;10834;52.268;6.770;2022-08-18T05:10:53;5.18;;;4.80;;
21352;SDS011;10834;52.268;6.770;2022-08-18T05:13:40;6.03;;;5.53;;
21352;SDS011;10834;52.268;6.770;2022-08-18T05:16:27;5.57;;;5.15;;
21352;SDS011;10834;52.268;6.770;2022-08-18T05:19:14;5.20;;;4.80;;
21352;SDS011;10834;52.268;6.770;2022-08-18T05:22:06;5.65;;;5.15;;
21352;SDS011;10834;52.268;6.770;2022-08-18T05:24:52;5.65;;;5.18;;
21352;SDS011;10834;52.268;6.770;2022-08-18T05:27:39;5.97;;;5.57;;
21352;SDS011;10834;52.268;6.770;2022-08-18T05:30:27;6.22;;;5.72;;
21352;SDS011;10834;52.268;6.770;2022-08-18T05:33:13;5.65;;;5.25;;
21352;SDS011;10834;52.268;6.770;2022-08-18T05:36:00;5.38;;;4.97;;
21352;SDS011;10834;52.268;6.770;2022-08-18T05:38:53;5.53;;;5.03;;
21352;SDS011;10834;52.268;6.770;2022-08-18T05:41:43;5.35;;;4.95;;
21352;SDS011;10834;52.268;6.770;2022-08-18T05:44:54;5.60;;;5.20;;
21352;SDS011;10834;52.268;6.770;2022-08-18T05:47:40;5.93;;;5.45;;
21352;SDS011;10834;52.268;6.770;2022-08-18T05:50:26;5.47;;;5.07;;
21352;SDS011;10834;52.268;6.770;2022-08-18T05:53:16;5.30;;;4.90;;
21352;SDS011;10834;52.268;6.770;2022-08-18T05:56:04;5.43;;;5.03;;
21352;SDS011;10834;52.268;6.770;2022-08-18T05:59:30;5.68;;;5.18;;
21352;SDS011;10834;52.268;6.770;2022-08-18T06:02:31;5.97;;;5.47;;
21352;SDS011;10834;52.268;6.770;2022-08-18T06:05:31;5.40;;;5.00;;
21352;SDS011;10834;52.268;6.770;2022-08-18T06:08:20;5.72;;;5.20;;
21352;SDS011;10834;52.268;6.770;2022-08-18T06:11:13;5.63;;;5.22;;
21352;SDS011;10834;52.268;6.770;2022-08-18T06:13:59;5.07;;;4.78;;
21352;SDS011;10834;52.268;6.770;2022-08-18T06:16:48;5.90;;;5.50;;
21352;SDS011;10834;52.268;6.770;2022-08-18T06:20:06;5.30;;;4.85;;
21352;SDS011;10834;52.268;6.770;2022-08-18T06:23:07;5.38;;;4.97;;
21352;SDS011;10834;52.268;6.770;2022-08-18T06:35:54;5.25;;;4.85;;
21352;SDS011;10834;52.268;6.770;2022-08-18T06:38:50;7.15;;;4.78;;
21352;SDS011;10834;52.268;6.770;2022-08-18T06:41:50;5.57;;;5.18;;
21352;SDS011;10834;52.268;6.770;2022-08-18T06:44:40;5.65;;;5.15;;
21352;SDS011;10834;52.268;6.770;2022-08-18T06:50:48;6.90;;;6.32;;
21352;SDS011;10834;52.268;6.770;2022-08-18T06:59:33;9.23;;;8.13;;
21352;SDS011;10834;52.268;6.770;2022-08-18T07:02:25;9.63;;;8.35;;
21352;SDS011;10834;52.268;6.770;2022-08-18T07:05:24;10.00;;;8.98;;
21352;SDS011;10834;52.268;6.770;2022-08-18T07:08:13;11.02;;;9.82;;
21352;SDS011;10834;52.268;6.770;2022-08-18T07:14:21;10.65;;;8.60;;
21352;SDS011;10834;52.268;6.770;2022-08-18T07:17:13;9.52;;;6.95;;
21352;SDS011;10834;52.268;6.770;2022-08-18T07:20:22;9.57;;;7.28;;
21352;SDS011;10834;52.268;6.770;2022-08-18T07:23:19;8.00;;;6.80;;
21352;SDS011;10834;52.268;6.770;2022-08-18T07:26:12;7.18;;;6.50;;
21352;SDS011;10834;52.268;6.770;2022-08-18T07:29:11;8.13;;;6.70;;
21352;SDS011;10834;52.268;6.770;2022-08-18T07:32:17;12.40;;;7.93;;
21352;SDS011;10834;52.268;6.770;2022-08-18T07:35:06;5.88;;;5.30;;
21352;SDS011;10834;52.268;6.770;2022-08-18T07:37:59;7.72;;;6.63;;
21352;SDS011;10834;52.268;6.770;2022-08-18T07:40:54;9.32;;;7.13;;
21352;SDS011;10834;52.268;6.770;2022-08-18T07:46:38;8.27;;;6.60;;
21352;SDS011;10834;52.268;6.770;2022-08-18T07:49:40;10.60;;;6.75;;
21352;SDS011;10834;52.268;6.770;2022-08-18T07:52:29;9.15;;;6.55;;
21352;SDS011;10834;52.268;6.770;2022-08-18T07:55:31;6.75;;;5.80;;
21352;SDS011;10834;52.268;6.770;2022-08-18T08:01:26;6.28;;;5.63;;
21352;SDS011;10834;52.268;6.770;2022-08-18T08:14:00;8.90;;;6.93;;
21352;SDS011;10834;52.268;6.770;2022-08-18T08:23:12;6.22;;;5.63;;
21352;SDS011;10834;52.268;6.770;2022-08-18T08:26:19;6.75;;;5.68;;
21352;SDS011;10834;52.268;6.770;2022-08-18T08:29:17;7.47;;;5.75;;
21352;SDS011;10834;52.268;6.770;2022-08-18T08:32:33;6.57;;;5.80;;
21352;SDS011;10834;52.268;6.770;2022-08-18T08:35:34;7.28;;;6.57;;
21352;SDS011;10834;52.268;6.770;2022-08-18T08:38:26;6.97;;;6.28;;
21352;SDS011;10834;52.268;6.770;2022-08-18T08:41:30;9.50;;;6.88;;
21352;SDS011;10834;52.268;6.770;2022-08-18T08:44:25;6.13;;;5.53;;
21352;SDS011;10834;52.268;6.770;2022-08-18T08:47:25;8.93;;;6.63;;
21352;SDS011;10834;52.268;6.770;2022-08-18T08:50:19;7.97;;;7.18;;
21352;SDS011;10834;52.268;6.770;2022-08-18T08:53:26;10.98;;;6.90;;
21352;SDS011;10834;52.268;6.770;2022-08-18T08:56:18;8.43;;;5.82;;
21352;SDS011;10834;52.268;6.770;2022-08-18T08:59:07;6.45;;;5.85;;
21352;SDS011;10834;52.268;6.770;2022-08-18T09:08:21;7.63;;;5.45;;
21352;SDS011;10834;52.268;6.770;2022-08-18T09:27:23;5.90;;;5.40;;
21352;SDS011;10834;52.268;6.770;2022-08-18T09:33:51;6.13;;;5.00;;
21352;SDS011;10834;52.268;6.770;2022-08-18T09:40:16;5.60;;;5.10;;
21352;SDS011;10834;52.268;6.770;2022-08-18T09:43:38;6.35;;;5.80;;
21352;SDS011;10834;52.268;6.770;2022-08-18T09:46:55;6.63;;;5.60;;
21352;SDS011;10834;52.268;6.770;2022-08-18T09:49:44;5.88;;;5.05;;
21352;SDS011;10834;52.268;6.770;2022-08-18T09:58:45;6.20;;;4.53;;
21352;SDS011;10834;52.268;6.770;2022-08-18T10:01:39;5.20;;;4.70;;
21352;SDS011;10834;52.268;6.770;2022-08-18T10:13:14;3.80;;;3.38;;
21352;SDS011;10834;52.268;6.770;2022-08-18T10:22:02;4.07;;;3.60;;
21352;SDS011;10834;52.268;6.770;2022-08-18T10:24:55;4.85;;;3.88;;
21352;SDS011;10834;52.268;6.770;2022-08-18T10:27:48;4.10;;;3.67;;
21352;SDS011;10834;52.268;6.770;2022-08-18T10:30:45;5.45;;;3.83;;
21352;SDS011;10834;52.268;6.770;2022-08-18T10:36:43;3.60;;;3.30;;
21352;SDS011;10834;52.268;6.770;2022-08-18T10:42:28;5.13;;;3.60;;
21352;SDS011;10834;52.268;6.770;2022-08-18T10:45:47;3.10;;;2.88;;
21352;SDS011;10834;52.268;6.770;2022-08-18T10:48:36;3.63;;;3.20;;
21352;SDS011;10834;52.268;6.770;2022-08-18T10:51:30;2.88;;;2.67;;
21352;SDS011;10834;52.268;6.770;2022-08-18T10:54:21;3.42;;;3.13;;
21352;SDS011;10834;52.268;6.770;2022-08-18T10:57:18;3.10;;;2.80;;
21352;SDS011;10834;52.268;6.770;2022-08-18T11:00:33;3.42;;;3.00;;
21352;SDS011;10834;52.268;6.770;2022-08-18T11:03:36;4.20;;;3.20;;
21352;SDS011;10834;52.268;6.770;2022-08-18T11:06:36;3.70;;;2.80;;
21352;SDS011;10834;52.268;6.770;2022-08-18T11:09:26;3.40;;;3.10;;
21352;SDS011;10834;52.268;6.770;2022-08-18T11:12:14;3.05;;;2.78;;
21352;SDS011;10834;52.268;6.770;2022-08-18T11:15:20;4.32;;;3.92;;
21352;SDS011;10834;52.268;6.770;2022-08-18T11:18:30;3.20;;;3.00;;
21352;SDS011;10834;52.268;6.770;2022-08-18T11:27:21;2.67;;;2.47;;
21352;SDS011;10834;52.268;6.770;2022-08-18T11:30:10;2.83;;;2.45;;
21352;SDS011;10834;52.268;6.770;2022-08-18T11:32:57;3.10;;;2.80;;
21352;SDS011;10834;52.268;6.770;2022-08-18T11:35:50;3.05;;;2.75;;
21352;SDS011;10834;52.268;6.770;2022-08-18T11:38:38;3.47;;;2.95;;
21352;SDS011;10834;52.268;6.770;2022-08-18T11:41:25;2.70;;;2.50;;
21352;SDS011;10834;52.268;6.770;2022-08-18T11:44:13;3.47;;;3.05;;
21352;SDS011;10834;52.268;6.770;2022-08-18T11:47:15;3.30;;;3.10;;
21352;SDS011;10834;52.268;6.770;2022-08-18T11:50:09;3.72;;;2.60;;
21352;SDS011;10834;52.268;6.770;2022-08-18T11:53:09;3.53;;;3.17;;
21352;SDS011;10834;52.268;6.770;2022-08-18T11:59:29;2.78;;;2.58;;
21352;SDS011;10834;52.268;6.770;2022-08-18T12:02:16;2.78;;;2.58;;
21352;SDS011;10834;52.268;6.770;2022-08-18T12:05:04;2.70;;;2.50;;
21352;SDS011;10834;52.268;6.770;2022-08-18T12:07:51;3.65;;;3.00;;
21352;SDS011;10834;52.268;6.770;2022-08-18T12:10:37;4.28;;;2.88;;
21352;SDS011;10834;52.268;6.770;2022-08-18T12:13:23;5.55;;;3.70;;
21352;SDS011;10834;52.268;6.770;2022-08-18T12:16:12;3.58;;;3.28;;
21352;SDS011;10834;52.268;6.770;2022-08-18T12:19:15;6.60;;;3.25;;
21352;SDS011;10834;52.268;6.770;2022-08-18T12:22:11;3.58;;;2.97;;
21352;SDS011;10834;52.268;6.770;2022-08-18T12:25:09;3.70;;;3.40;;
21352;SDS011;10834;52.268;6.770;2022-08-18T12:27:57;3.13;;;2.90;;
21352;SDS011;10834;52.268;6.770;2022-08-18T12:30:43;2.88;;;2.65;;
21352;SDS011;10834;52.268;6.770;2022-08-18T12:33:29;3.30;;;2.85;;
21352;SDS011;10834;52.268;6.770;2022-08-18T12:36:15;3.72;;;3.22;;
21352;SDS011;10834;52.268;6.770;2022-08-18T12:39:02;3.65;;;2.70;;
21352;SDS011;10834;52.268;6.770;2022-08-18T12:41:49;3.67;;;2.50;;
21352;SDS011;10834;52.268;6.770;2022-08-18T12:44:35;3.20;;;2.70;;
21352;SDS011;10834;52.268;6.770;2022-08-18T12:47:22;2.88;;;2.67;;
21352;SDS011;10834;52.268;6.770;2022-08-18T12:50:10;3.20;;;2.50;;
21352;SDS011;10834;52.268;6.770;2022-08-18T12:52:56;4.70;;;2.95;;
21352;SDS011;10834;52.268;6.770;2022-08-18T12:55:43;2.63;;;2.42;;
21352;SDS011;10834;52.268;6.770;2022-08-18T12:58:29;2.97;;;2.78;;
21352;SDS011;10834;52.268;6.770;2022-08-18T13:01:19;4.45;;;2.92;;
21352;SDS011;10834;52.268;6.770;2022-08-18T13:04:05;2.78;;;2.50;;
21352;SDS011;10834;52.268;6.770;2022-08-18T13:06:53;3.40;;;3.10;;
21352;SDS011;10834;52.268;6.770;2022-08-18T13:09:41;2.22;;;2.13;;
21352;SDS011;10834;52.268;6.770;2022-08-18T13:12:28;2.90;;;2.45;;
21352;SDS011;10834;52.268;6.770;2022-08-18T13:15:14;3.03;;;2.83;;
21352;SDS011;10834;52.268;6.770;2022-08-18T13:18:00;2.60;;;2.38;;
21352;SDS011;10834;52.268;6.770;2022-08-18T13:20:47;2.78;;;2.22;;
21352;SDS011;10834;52.268;6.770;2022-08-18T13:23:34;2.50;;;2.30;;
21352;SDS011;10834;52.268;6.770;2022-08-18T13:26:25;2.35;;;2.25;;
21352;SDS011;10834;52.268;6.770;2022-08-18T13:29:13;2.28;;;2.17;;
21352;SDS011;10834;52.268;6.770;2022-08-18T13:32:01;3.75;;;2.40;;
21352;SDS011;10834;52.268;6.770;2022-08-18T13:34:52;2.80;;;2.35;;
21352;SDS011;10834;52.268;6.770;2022-08-18T13:37:38;3.75;;;3.55;;
21352;SDS011;10834;52.268;6.770;2022-08-18T13:40:25;3.70;;;3.50;;
21352;SDS011;10834;52.268;6.770;2022-08-18T13:43:11;3.60;;;3.03;;
21352;SDS011;10834;52.268;6.770;2022-08-18T13:45:57;2.88;;;2.67;;
21352;SDS011;10834;52.268;6.770;2022-08-18T13:48:44;2.60;;;2.40;;
21352;SDS011;10834;52.268;6.770;2022-08-18T13:51:30;3.00;;;2.80;;
21352;SDS011;10834;52.268;6.770;2022-08-18T13:54:20;2.60;;;2.38;;
21352;SDS011;10834;52.268;6.770;2022-08-18T13:57:09;3.15;;;2.85;;
21352;SDS011;10834;52.268;6.770;2022-08-18T13:59:55;3.30;;;3.10;;
21352;SDS011;10834;52.268;6.770;2022-08-18T14:02:42;2.50;;;2.33;;
21352;SDS011;10834;52.268;6.770;2022-08-18T14:05:28;3.20;;;2.63;;
21352;SDS011;10834;52.268;6.770;2022-08-18T14:08:16;2.78;;;2.58;;
21352;SDS011;10834;52.268;6.770;2022-08-18T14:11:02;2.58;;;2.38;;
21352;SDS011;10834;52.268;6.770;2022-08-18T14:13:48;3.92;;;2.58;;
21352;SDS011;10834;52.268;6.770;2022-08-18T14:16:34;2.50;;;2.40;;
21352;SDS011;10834;52.268;6.770;2022-08-18T14:19:20;2.40;;;2.13;;
21352;SDS011;10834;52.268;6.770;2022-08-18T14:22:24;2.42;;;2.17;;
21352;SDS011;10834;52.268;6.770;2022-08-18T14:25:29;2.25;;;2.15;;
21352;SDS011;10834;52.268;6.770;2022-08-18T14:28:34;2.42;;;2.22;;
21352;SDS011;10834;52.268;6.770;2022-08-18T14:31:21;6.47;;;2.83;;
21352;SDS011;10834;52.268;6.770;2022-08-18T14:34:08;2.53;;;2.33;;
21352;SDS011;10834;52.268;6.770;2022-08-18T14:36:55;3.10;;;2.40;;
21352;SDS011;10834;52.268;6.770;2022-08-18T14:39:41;2.55;;;2.35;;
21352;SDS011;10834;52.268;6.770;2022-08-18T14:42:27;2.95;;;2.75;;
21352;SDS011;10834;52.268;6.770;2022-08-18T14:45:13;2.88;;;2.67;;
21352;SDS011;10834;52.268;6.770;2022-08-18T14:48:00;4.22;;;2.90;;
21352;SDS011;10834;52.268;6.770;2022-08-18T14:50:48;4.55;;;2.42;;
21352;SDS011;10834;52.268;6.770;2022-08-18T14:53:37;2.13;;;1.98;;
21352;SDS011;10834;52.268;6.770;2022-08-18T14:56:23;2.85;;;2.30;;
21352;SDS011;10834;52.268;6.770;2022-08-18T14:59:10;2.40;;;2.25;;
21352;SDS011;10834;52.268;6.770;2022-08-18T15:01:56;4.18;;;1.90;;
21352;SDS011;10834;52.268;6.770;2022-08-18T15:04:43;2.80;;;2.00;;
21352;SDS011;10834;52.268;6.770;2022-08-18T15:07:29;2.97;;;2.08;;
21352;SDS011;10834;52.268;6.770;2022-08-18T15:10:15;2.05;;;1.90;;
21352;SDS011;10834;52.268;6.770;2022-08-18T15:13:01;1.63;;;1.52;;
21352;SDS011;10834;52.268;6.770;2022-08-18T15:15:47;1.70;;;1.60;;
21352;SDS011;10834;52.268;6.770;2022-08-18T15:18:33;1.65;;;1.48;;
21352;SDS011;10834;52.268;6.770;2022-08-18T15:21:19;1.60;;;1.50;;
21352;SDS011;10834;52.268;6.770;2022-08-18T15:24:24;1.60;;;1.50;;
21352;SDS011;10834;52.268;6.770;2022-08-18T15:27:30;1.60;;;1.48;;
21352;SDS011;10834;52.268;6.770;2022-08-18T15:30:17;3.80;;;1.60;;
21352;SDS011;10834;52.268;6.770;2022-08-18T15:33:04;2.13;;;2.03;;
21352;SDS011;10834;52.268;6.770;2022-08-18T15:35:51;1.80;;;1.70;;
21352;SDS011;10834;52.268;6.770;2022-08-18T15:38:39;3.75;;;1.80;;
21352;SDS011;10834;52.268;6.770;2022-08-18T15:44:25;2.05;;;1.90;;
21352;SDS011;10834;52.268;6.770;2022-08-18T15:47:11;1.63;;;1.52;;
21352;SDS011;10834;52.268;6.770;2022-08-18T15:49:57;1.75;;;1.55;;
21352;SDS011;10834;52.268;6.770;2022-08-18T15:52:53;1.88;;;1.38;;
21352;SDS011;10834;52.268;6.770;2022-08-18T15:55:40;1.90;;;1.80;;
21352;SDS011;10834;52.268;6.770;2022-08-18T15:58:26;1.90;;;1.80;;
21352;SDS011;10834;52.268;6.770;2022-08-18T16:01:13;3.33;;;1.50;;
21352;SDS011;10834;52.268;6.770;2022-08-18T16:03:59;1.85;;;1.42;;
21352;SDS011;10834;52.268;6.770;2022-08-18T16:06:47;2.28;;;1.90;;
21352;SDS011;10834;52.268;6.770;2022-08-18T16:09:35;1.35;;;1.33;;
21352;SDS011;10834;52.268;6.770;2022-08-18T16:12:21;1.80;;;1.70;;
21352;SDS011;10834;52.268;6.770;2022-08-18T16:15:07;2.08;;;1.98;;
21352;SDS011;10834;52.268;6.770;2022-08-18T16:17:54;2.58;;;1.75;;
21352;SDS011;10834;52.268;6.770;2022-08-18T16:20:41;1.85;;;1.75;;
21352;SDS011;10834;52.268;6.770;2022-08-18T16:23:27;1.83;;;1.73;;
21352;SDS011;10834;52.268;6.770;2022-08-18T16:26:14;2.00;;;1.90;;
21352;SDS011;10834;52.268;6.770;2022-08-18T16:29:01;3.35;;;2.08;;
21352;SDS011;10834;52.268;6.770;2022-08-18T16:31:47;2.08;;;1.95;;
21352;SDS011;10834;52.268;6.770;2022-08-18T16:34:35;1.95;;;1.70;;
21352;SDS011;10834;52.268;6.770;2022-08-18T16:37:21;2.30;;;1.90;;
21352;SDS011;10834;52.268;6.770;2022-08-18T16:40:07;2.03;;;1.83;;
21352;SDS011;10834;52.268;6.770;2022-08-18T16:42:53;2.05;;;1.95;;
21352;SDS011;10834;52.268;6.770;2022-08-18T16:45:40;2.05;;;1.88;;
21352;SDS011;10834;52.268;6.770;2022-08-18T16:48:27;3.65;;;2.30;;
21352;SDS011;10834;52.268;6.770;2022-08-18T16:51:15;1.83;;;1.73;;
21352;SDS011;10834;52.268;6.770;2022-08-18T16:54:03;2.00;;;1.85;;
21352;SDS011;10834;52.268;6.770;2022-08-18T16:56:49;2.20;;;2.00;;
21352;SDS011;10834;52.268;6.770;2022-08-18T16:59:36;2.25;;;2.13;;
21352;SDS011;10834;52.268;6.770;2022-08-18T17:02:41;2.90;;;2.40;;
21352;SDS011;10834;52.268;6.770;2022-08-18T17:05:46;2.45;;;2.25;;
21352;SDS011;10834;52.268;6.770;2022-08-18T17:08:32;3.10;;;2.58;;
21352;SDS011;10834;52.268;6.770;2022-08-18T17:11:19;3.63;;;2.15;;
21352;SDS011;10834;52.268;6.770;2022-08-18T17:14:06;2.38;;;2.20;;
21352;SDS011;10834;52.268;6.770;2022-08-18T17:16:53;3.15;;;2.40;;
21352;SDS011;10834;52.268;6.770;2022-08-18T17:19:40;5.13;;;3.40;;
21352;SDS011;10834;52.268;6.770;2022-08-18T17:22:26;7.40;;;4.50;;
21352;SDS011;10834;52.268;6.770;2022-08-18T17:25:12;5.40;;;4.47;;
21352;SDS011;10834;52.268;6.770;2022-08-18T17:28:04;8.32;;;4.68;;
21352;SDS011;10834;52.268;6.770;2022-08-18T17:30:51;6.25;;;4.22;;
21352;SDS011;10834;52.268;6.770;2022-08-18T17:33:38;4.15;;;3.63;;
21352;SDS011;10834;52.268;6.770;2022-08-18T17:36:31;3.38;;;3.17;;
21352;SDS011;10834;52.268;6.770;2022-08-18T17:39:23;3.72;;;2.60;;
21352;SDS011;10834;52.268;6.770;2022-08-18T17:42:13;3.05;;;2.78;;
21352;SDS011;10834;52.268;6.770;2022-08-18T17:45:12;2.55;;;2.35;;
21352;SDS011;10834;52.268;6.770;2022-08-18T17:48:08;2.75;;;2.45;;
21352;SDS011;10834;52.268;6.770;2022-08-18T17:51:03;2.47;;;2.28;;
21352;SDS011;10834;52.268;6.770;2022-08-18T17:54:30;3.13;;;2.90;;
21352;SDS011;10834;52.268;6.770;2022-08-18T17:57:22;2.65;;;2.40;;
21352;SDS011;10834;52.268;6.770;2022-08-18T18:00:14;2.25;;;2.05;;
21352;SDS011;10834;52.268;6.770;2022-08-18T18:03:02;2.92;;;2.42;;
21352;SDS011;10834;52.268;6.770;2022-08-18T18:05:57;3.13;;;2.10;;
21352;SDS011;10834;52.268;6.770;2022-08-18T18:11:41;2.22;;;2.03;;
21352;SDS011;10834;52.268;6.770;2022-08-18T18:14:34;2.45;;;2.25;;
21352;SDS011;10834;52.268;6.770;2022-08-18T18:17:28;3.05;;;2.42;;
21352;SDS011;10834;52.268;6.770;2022-08-18T18:20:34;2.47;;;2.28;;
21352;SDS011;10834;52.268;6.770;2022-08-18T18:23:27;2.58;;;1.92;;
21352;SDS011;10834;52.268;6.770;2022-08-18T18:26:20;3.05;;;2.20;;
21352;SDS011;10834;52.268;6.770;2022-08-18T18:37:56;2.40;;;2.20;;
21352;SDS011;10834;52.268;6.770;2022-08-18T18:40:54;2.47;;;2.28;;
21352;SDS011;10834;52.268;6.770;2022-08-18T18:43:46;2.40;;;2.28;;
21352;SDS011;10834;52.268;6.770;2022-08-18T18:46:34;3.00;;;2.70;;
21352;SDS011;10834;52.268;6.770;2022-08-18T18:49:41;2.42;;;2.33;;
21352;SDS011;10834;52.268;6.770;2022-08-18T18:52:47;3.03;;;2.47;;
21352;SDS011;10834;52.268;6.770;2022-08-18T18:55:41;2.17;;;1.98;;
21352;SDS011;10834;52.268;6.770;2022-08-18T19:04:43;2.60;;;2.40;;
21352;SDS011;10834;52.268;6.770;2022-08-18T19:10:52;2.10;;;1.90;;
21352;SDS011;10834;52.268;6.770;2022-08-18T19:13:53;2.90;;;2.33;;
21352;SDS011;10834;52.268;6.770;2022-08-18T19:16:58;2.47;;;2.25;;
21352;SDS011;10834;52.268;6.770;2022-08-18T19:20:11;2.55;;;2.35;;
21352;SDS011;10834;52.268;6.770;2022-08-18T19:23:27;2.38;;;2.20;;
21352;SDS011;10834;52.268;6.770;2022-08-18T19:26:34;3.65;;;3.10;;
21352;SDS011;10834;52.268;6.770;2022-08-18T19:29:27;3.08;;;2.50;;